Ride Results

Kentish (18-03-2006)
Ride distance: 80.0 km

Outcomes - Kentish (18-03-2006)
Division No. of Entries Retired / DNE Completed Withdrawn Ineligible V/O Percentage Completed
HW 10 - 9 - - 1 90.00%
MW 18 - 17 - - 1 94.44%
LW 11 - 10 - - 1 90.91%
JN 4 - 2 - - 2 50.00%
Totals 43 - 38 - - 5 88.37%
Results - Kentish (18-03-2006)
No. Rider Horse Place Time Leg Speeds Total
Km/Hr
H/R bpm
Heavyweight
119 Max Lockhart Glanheathyn Tara II 1 4:26:02 17.9, 18.1 18.04 40, 43, 47 (Avg:45)
140 Stuart King Chilli Pepper 2 5:20:00 16.5, 13.7 15.00 32, 44, 59 (Avg:51)
11 Adam Richardson Stoodleigh Bey Abby 2 5:20:00 15.9, 14.1 15.00 60, 46, 45 (Avg:45)
45 Denise Williams Lauralyn Sampson 4 6:24:00 13.8, 11.3 12.50 38, 44, 60 (Avg:52)
63 Peter McClenaghan Sebastian 5 6:29:00 13.4, 11.3 12.34 36, 41, 49 (Avg:45)
34 Shane Scammell Deeka Park Bella 5 6:29:00 13.4, 11.3 12.34 42, 52, 48 (Avg:50)
H Linda Arnold Jonah 7 6:57:00 13.5, 9.9 11.51 39, 40, 45 (Avg:42)
36 Chris Webb Kalody Park Shubek 8 7:07:00 11.7, 10.7 11.24 34, 44, 58 (Avg:51)
29 Trenton Huxtable Paluka Aladdin 9 7:35:00 11.2, 9.9 10.55 40, 52, 59 (Avg:55)
123 Peter McIntee Hayden Heart Rate L1 0:00:00 11.2 - 49, 58 (Avg:58)
Middleweight
15 Sonia Brown-Cordell Santashka Dances on Air 1 4:26:00 18.0, 18.0 18.05 31, 42, 60 (Avg:51)
13 Pam Blackwood Glanheathyn Shasha 2 4:26:02 17.9, 18.1 18.04 34, 40, 47 (Avg:43)
68 Janine Parr Elphyn Prince 3 5:17:00 17.6, 13.2 15.14 36, 49, 59 (Avg:54)
69 Tracey Wyllie Ike Major 4 6:11:01 13.5, 12.3 12.94 38, 51, 56 (Avg:53)
57 Tania Jago River Gum Bounty 5 6:12:00 13.8, 12.0 12.90 38, 40, 48 (Avg:44)
35 Jane Cutts Lauralyn Banjo 6 6:24:00 13.8, 11.3 12.50 36, 43, 59 (Avg:51)
196 Vanessa Smith Highland View Darrah 7 6:29:00 11.7, 13.0 12.34 37, 45, 53 (Avg:49)
50 Joanne Marshall Rivergum Sorroco 8 6:36:00 12.2, 11.9 12.12 44, 46, 52 (Avg:49)
22 Helen Astell Nioka Park Little Bear 9 6:37:02 13.0, 11.2 12.09 48, 49, 50 (Avg:49)
97 Elizabeth Stanfield Nihal Nissaarn 10 6:41:00 13.6, 10.6 11.97 35, 43, 50 (Avg:46)
154 Alison McLaren Kashima Diamond 11 6:55:00 13.5, 10.0 11.57 39, 51, 45 (Avg:48)
10 Libby Webb Sayida Mufti 12 7:07:00 11.7, 10.7 11.24 44, 48, 46 (Avg:47)
186 Martin Vesinger Elphyn Shukana 13 7:07:50 11.5, 10.8 11.22 40, 45, 51 (Avg:48)
55 Jane Stratton Alnotarj Zakov 14 7:12:01 11.1, 11.1 11.11 35, 41, 50 (Avg:45)
200 Jane Barton Magnum Montana 15 7:12:02 11.1, 11.1 11.11 34, 46, 60 (Avg:53)
195 Yasuhiro Ono Highland View McKillop 16 7:43:00 10.4, 10.3 10.37 44, 49, 52 (Avg:50)
102 Keryn Mahoney Sarisha 17 8:13:00 10.2, 9.2 9.74 31, 37, 39 (Avg:38)
111 Royce Martin Highland View Vale Lame L1 0:00:00 15.8 - 38, 48 (Avg:48)
Lightweight
21 Karen Quinn Sonarai Blue Sage 1 5:45:00 13.8, 13.9 13.91 32, 42, 50 (Avg:46)
23 Tracey Nutting Shemali Mikalaa 2 6:12:00 13.8, 12.0 12.90 44, 42, 46 (Avg:44)
12 Anita Hutchins Touchwarr El-Akhair Ajala 3 6:36:00 12.2, 11.9 12.12 40, 42, 52 (Avg:47)
83 Angie Clark Enderby Rakaia 4 6:37:00 12.2, 11.9 12.09 63, 53, 60 (Avg:56)
24 Kylie Williams Pancho 5 6:37:01 13.0, 11.2 12.09 37, 44, 59 (Avg:51)
44 Kendal McIntee Maximus 6 6:55:50 11.2, 11.8 11.54 35, 39, 57 (Avg:48)
16 Margaret Richardson Inshallah Cabaret 7 7:02:00 11.5, 11.2 11.37 40, 40, 46 (Avg:43)
48 Toni Sheehan Nabowla Nook Nite 8 7:35:00 11.2, 9.9 10.55 34, 39, 43 (Avg:41)
192 Midora Nakazawa Highland View Little Jimmy Spooker 9 7:43:00 10.4, 10.3 10.37 34, 40, 44 (Avg:42)
1 Ann Richards Middleton's Rousabout 10 8:13:00 10.2, 9.2 9.74 34, 38, 39 (Avg:38)
8 Jean Treloar Glenleigh Jazabell Heart Rate L1 0:00:00 18.4 - 41, 70 (Avg:70)
Junior
18 Sheleah Astell Splitters Creek Aussie 1 5:45:00 13.8, 13.9 13.91 30, 41, 49 (Avg:45)
5 Kelsey Webb Slim Dusty Junior 2 7:07:00 11.7, 10.7 11.24 40, 48, 54 (Avg:51)
125 Brooke Brown-Cordell Santashka Senabi Heart Rate L2 0:00:00 18.0, 18.0 - 50, 45, 62 (Avg:53)
28 Dimity Schofield Malricia Jess Lame L1 0:00:00 15.8 - 39, 45 (Avg:45)